Flight Information

DEPARTURE
MISSOULA, MT
Elevation:
3205
Runways:
8/26 - 4612x75 - ASPH-G
12/30 - 9501x150 - ASPH-G
ATIS:
126.65
Ground:
121.9
Tower:
MISSOULA TOWER 118.4
DESTINATION
,
Elevation:
TPA:
1000 (est.)


6371.1 NM72° True-18° Var54° HDG

Flight Plan:
(click to file on line)

1. Type
2. Aircraft Identification
3. Aircraft Type / Special Equipment
4. True Airspeed
kts
5. Departure Airport
(ICAO code)
6. Arriving Airport
(ICAO code)
7. Cruising Altitude
ft
8. Alternate Airport
(ICAO code)
9. Route of Flight
10. Remarks


00:00:00 Departure ATIS: Destination ATIS:

Clearance Limit:
Route:
Altitude: Expect in minutes
Frequency:
Transponder: (7500 Hijack / 7600 Lost Comms / 7700 Emergency)


KMSO 101537Z VRB04KT 10SM FEW015 15/12 A3017 RMK AO2 T01500117
Time: 2020-07-10T15:37:00Z
1594396220
Winds: variable
Visibility: 10.0 sm
Clouds (AGL): FEW 1500
Temperature: 15.0 C
Dew Point: 11.7 C
Pressure: 30.171259 in Hgbr


Notes:

Data extracted from FAA Digital Chart Supplement. Effective: 0901Z Thursday, May 21, 2020 to 0901Z Thursday, Jul 16, 2020
Current ATIS data is provided courtisy of PilotEdge.